Time;durP1;ratioP1;P1;durP2;ratioP2;P2;SDS_P1;SDS_P2;PMS_P1;PMS_P2;Temp;Humidity;BMP_temperature;BMP_pressure;BME280_temperature;BME280_humidity;BME280_pressure;Samples;Min_cycle;Max_cycle;Signal;HPM_P1;HPM_P2
2023/10/07 00:00:32;;;;;;;10.50;4.35;;;16.20;99.90;;;;;;5052807;28;20430;-79
2023/10/07 00:02:59;;;;;;;11.35;4.50;;;16.20;99.90;;;;;;5071114;28;20197;-79
2023/10/07 00:05:35;;;;;;;9.75;4.10;;;16.20;99.90;;;;;;5070947;28;20040;-80
2023/10/07 00:08:08;;;;;;;13.00;4.90;;;16.20;99.90;;;;;;5071028;28;20391;-79
2023/10/07 00:10:37;;;;;;;;;;;16.10;99.90;;;;;;5070519;28;20593;-79
2023/10/07 00:13:05;;;;;;;8.95;4.25;;;16.10;99.90;;;;;;5071119;28;19959;-79
2023/10/07 00:15:30;;;;;;;12.00;5.05;;;16.10;99.90;;;;;;5070471;28;20390;-79
2023/10/07 00:18:06;;;;;;;13.35;4.43;;;16.10;99.90;;;;;;5070722;28;20104;-79
2023/10/07 00:20:33;;;;;;;13.60;4.65;;;16.10;99.90;;;;;;5070428;28;20025;-80
2023/10/07 00:23:01;;;;;;;13.07;4.45;;;16.10;99.90;;;;;;5070579;28;20459;-79
2023/10/07 00:25:30;;;;;;;11.05;4.57;;;16.00;99.90;;;;;;5070614;28;20028;-78
2023/10/07 00:27:58;;;;;;;14.68;4.22;;;16.10;99.90;;;;;;5070129;28;20032;-78
2023/10/07 00:30:27;;;;;;;12.63;4.28;;;16.00;99.90;;;;;;5070513;28;20017;-79
2023/10/07 00:32:55;;;;;;;8.68;4.18;;;16.10;99.90;;;;;;5070145;28;20020;-80
2023/10/07 00:35:23;;;;;;;8.82;4.07;;;16.10;99.90;;;;;;5052319;28;20475;-79
2023/10/07 00:37:48;;;;;;;11.18;3.90;;;16.00;99.90;;;;;;5070254;28;20024;-79
2023/10/07 00:40:14;;;;;;;10.75;4.57;;;16.10;99.90;;;;;;5070420;28;20024;-79
2023/10/07 00:42:44;;;;;;;11.05;4.28;;;16.10;99.90;;;;;;5069527;28;20347;-79
2023/10/07 00:45:16;;;;;;;14.20;4.55;;;16.10;99.90;;;;;;5070783;28;20032;-79
2023/10/07 00:47:43;;;;;;;12.70;4.00;;;16.10;99.90;;;;;;5069567;28;20025;-78
2023/10/07 00:50:10;;;;;;;11.00;4.35;;;16.10;99.90;;;;;;5069847;28;20045;-79
2023/10/07 00:52:48;;;;;;;12.50;4.70;;;16.10;99.90;;;;;;5070443;28;20050;-79
2023/10/07 00:55:22;;;;;;;12.82;4.30;;;16.10;99.90;;;;;;5070622;28;20135;-78
2023/10/07 00:57:51;;;;;;;15.18;4.60;;;16.10;99.90;;;;;;5070250;28;20028;-79
2023/10/07 01:02:50;;;;;;;16.80;4.75;;;16.10;99.90;;;;;;5070389;28;20052;-79
2023/10/07 01:05:22;;;;;;;10.90;4.25;;;16.00;99.90;;;;;;5070517;28;20029;-79
2023/10/07 01:07:53;;;;;;;12.75;4.72;;;16.00;99.90;;;;;;5069502;28;20115;-79
2023/10/07 01:10:25;;;;;;;18.35;5.82;;;16.10;99.90;;;;;;5070458;28;20040;-79
2023/10/07 01:12:51;;;;;;;10.70;4.47;;;16.10;99.90;;;;;;5069773;28;20025;-79
2023/10/07 01:17:47;;;;;;;11.38;4.43;;;16.10;99.90;;;;;;5069433;28;20036;-80
2023/10/07 01:20:14;;;;;;;15.63;4.60;;;16.10;99.90;;;;;;5070073;28;20024;-80
2023/10/07 01:23:02;;;;;;;13.52;4.25;;;16.10;99.90;;;;;;5051467;28;20048;-79
2023/10/07 01:25:29;;;;;;;15.35;4.75;;;16.10;99.90;;;;;;5070056;28;20035;-79
2023/10/07 01:27:55;;;;;;;16.10;5.03;;;16.10;99.90;;;;;;5069380;28;20097;-79
2023/10/07 01:30:29;;;;;;;14.82;4.28;;;16.10;99.90;;;;;;5070139;28;20130;-78
2023/10/07 01:36:07;;;;;;;10.20;4.13;;;16.10;99.90;;;;;;5047642;28;20356;-79
2023/10/07 01:38:33;;;;;;;13.48;4.13;;;16.10;99.90;;;;;;5069744;28;20089;-78
2023/10/07 01:41:06;;;;;;;15.10;4.22;;;16.20;99.90;;;;;;5069429;28;20386;-79
2023/10/07 01:43:32;;;;;;;12.43;3.90;;;16.20;99.90;;;;;;5069568;28;20028;-79
2023/10/07 01:46:10;;;;;;;9.93;4.03;;;16.20;99.90;;;;;;5069336;28;20035;-79
2023/10/07 01:48:37;;;;;;;11.10;4.18;;;16.20;99.90;;;;;;5069935;28;20036;-78
2023/10/07 01:51:05;;;;;;;11.07;3.42;;;16.20;99.90;;;;;;5069008;28;20052;-79
2023/10/07 01:53:34;;;;;;;10.02;4.05;;;16.20;99.90;;;;;;5069611;28;20116;-78
2023/10/07 01:56:04;;;;;;;8.27;3.58;;;16.20;99.90;;;;;;5069152;28;20131;-79
2023/10/07 01:58:30;;;;;;;7.65;3.80;;;16.30;99.90;;;;;;5070057;28;20108;-77
2023/10/07 02:00:59;;;;;;;11.50;3.55;;;16.30;99.90;;;;;;5071625;28;20490;-79
2023/10/07 02:03:25;;;;;;;6.60;3.40;;;16.30;99.90;;;;;;5073309;28;20341;-79
2023/10/07 02:05:54;;;;;;;12.48;4.10;;;16.30;99.90;;;;;;5073279;28;20028;-77
2023/10/07 02:08:24;;;;;;;8.73;3.78;;;16.20;99.90;;;;;;5072966;28;20059;-79
2023/10/07 02:10:56;;;;;;;9.90;4.07;;;16.30;99.90;;;;;;5072659;28;20036;-79
2023/10/07 02:13:22;;;;;;;11.55;3.50;;;16.20;99.90;;;;;;5073516;28;20097;-78
2023/10/07 02:15:49;;;;;;;11.02;3.92;;;16.30;99.90;;;;;;5072480;28;20024;-79
2023/10/07 02:18:15;;;;;;;11.73;3.70;;;16.30;99.90;;;;;;5073162;28;20108;-78
2023/10/07 02:20:43;;;;;;;9.05;3.63;;;16.20;99.90;;;;;;5072659;28;20024;-79
2023/10/07 02:23:12;;;;;;;15.35;4.22;;;16.20;99.90;;;;;;5072672;28;20020;-79
2023/10/07 02:25:41;;;;;;;13.77;4.25;;;16.20;99.90;;;;;;5073276;28;20074;-79
2023/10/07 02:28:08;;;;;;;9.07;3.80;;;16.20;99.90;;;;;;5072876;28;20028;-78
2023/10/07 02:31:00;;;;;;;10.43;3.58;;;16.10;99.90;;;;;;5072671;28;20475;-79
2023/10/07 02:33:27;;;;;;;14.35;4.35;;;16.20;99.90;;;;;;5073198;28;20130;-78
2023/10/07 02:35:57;;;;;;;13.25;3.83;;;16.10;99.90;;;;;;5054187;28;20025;-78
2023/10/07 02:38:36;;;;;;;14.13;4.30;;;16.10;99.90;;;;;;5072812;28;20386;-78
2023/10/07 02:41:16;;;;;;;10.23;3.95;;;16.10;99.90;;;;;;5071989;28;20773;-80
2023/10/07 02:43:43;;;;;;;9.75;3.83;;;16.10;99.90;;;;;;5072524;28;20424;-79
2023/10/07 02:46:22;;;;;;;10.52;4.40;;;16.10;99.90;;;;;;5072879;28;20021;-79
2023/10/07 02:48:48;;;;;;;17.38;4.28;;;16.10;99.90;;;;;;5071996;28;20025;-79
2023/10/07 02:51:14;;;;;;;13.30;4.10;;;16.10;99.90;;;;;;5072256;28;20055;-79
2023/10/07 02:53:39;;;;;;;11.57;4.03;;;16.10;99.90;;;;;;5072234;28;20028;-79
2023/10/07 02:56:17;;;;;;;12.05;4.00;;;16.10;99.90;;;;;;5071629;28;20029;-80
2023/10/07 02:59:00;;;;;;;10.18;3.95;;;16.10;99.90;;;;;;5071855;28;20028;-79
2023/10/07 03:01:26;;;;;;;9.68;3.70;;;16.00;99.90;;;;;;5072675;28;20445;-78
2023/10/07 03:03:53;;;;;;;11.15;4.05;;;16.00;99.90;;;;;;5072069;28;20082;-79
2023/10/07 03:06:20;;;;;;;11.80;4.43;;;16.00;99.90;;;;;;5054392;28;20037;-78
2023/10/07 03:11:21;;;;;;;11.48;4.10;;;16.00;99.90;;;;;;5071576;28;20024;-79
2023/10/07 03:13:49;;;;;;;11.90;4.47;;;16.00;99.90;;;;;;5071598;28;20036;-79
2023/10/07 03:19:20;;;;;;;10.35;4.18;;;16.00;99.90;;;;;;5071378;28;20035;-79
2023/10/07 03:24:10;;;;;;;9.68;4.60;;;16.00;99.90;;;;;;5071088;28;20118;-78
2023/10/07 03:26:38;;;;;;;11.65;3.88;;;15.90;99.90;;;;;;5071820;28;20032;-78
2023/10/07 03:29:06;;;;;;;7.63;3.55;;;15.90;99.90;;;;;;5070895;28;20032;-79
2023/10/07 03:31:35;;;;;;;8.65;3.53;;;15.90;99.90;;;;;;5071774;28;20024;-78
2023/10/07 03:34:03;;;;;;;10.48;4.18;;;16.00;99.90;;;;;;5071049;28;20519;-80
2023/10/07 03:36:41;;;;;;;6.40;3.63;;;16.00;99.90;;;;;;5071401;28;20021;-79
2023/10/07 03:41:55;;;;;;;8.18;3.97;;;16.00;99.90;;;;;;5071074;28;20104;-79
2023/10/07 03:44:31;;;;;;;9.63;3.47;;;16.00;99.90;;;;;;5071108;28;20036;-79
2023/10/07 03:46:57;;;;;;;8.82;3.80;;;15.90;99.90;;;;;;5070847;28;20029;-80
2023/10/07 03:49:27;;;;;;;11.82;4.43;;;15.90;99.90;;;;;;5070941;28;20505;-78
2023/10/07 03:52:06;;;;;;;13.18;3.78;;;15.90;99.90;;;;;;5070206;28;20398;-79
2023/10/07 03:54:34;;;;;;;11.95;3.65;;;15.90;99.90;;;;;;5070995;28;20063;-80
2023/10/07 03:57:02;;;;;;;10.35;3.50;;;15.90;99.90;;;;;;5070226;28;20032;-80
2023/10/07 03:59:37;;;;;;;8.77;3.90;;;15.90;99.90;;;;;;5071001;28;20063;-79
2023/10/07 04:03:07;;;;;;;10.20;3.70;;;15.90;99.90;;;;;;5070475;28;20048;-80
2023/10/07 04:05:00;;;;;;;9.80;3.95;;;15.90;99.90;;;;;;5052767;28;20048;-80
2023/10/07 04:07:30;;;;;;;10.20;3.90;;;15.90;99.90;;;;;;5053116;28;20370;-79
2023/10/07 04:10:13;;;;;;;8.90;3.70;;;15.90;99.90;;;;;;5070445;28;20036;-79
2023/10/07 04:12:39;;;;;;;11.25;4.72;;;15.80;99.90;;;;;;5071061;28;20092;-79
2023/10/07 04:15:10;;;;;;;8.05;3.53;;;15.90;99.90;;;;;;5070135;28;20542;-80
2023/10/07 04:17:38;;;;;;;8.43;4.00;;;15.80;99.90;;;;;;5070903;28;20024;-79
2023/10/07 04:23:02;;;;;;;6.25;3.38;;;15.90;99.90;;;;;;5038796;28;20430;-79
2023/10/07 04:25:31;;;;;;;8.90;3.47;;;15.90;99.90;;;;;;5070517;28;20028;-79
2023/10/07 04:27:58;;;;;;;6.57;3.83;;;15.90;99.90;;;;;;5069752;28;20407;-79
2023/10/07 04:30:39;;;;;;;7.57;3.65;;;15.90;99.90;;;;;;5070598;28;20086;-79
2023/10/07 04:33:08;;;;;;;9.38;4.13;;;15.90;99.90;;;;;;5070240;28;20089;-80
2023/10/07 04:35:34;;;;;;;9.90;4.13;;;15.90;99.90;;;;;;5070418;28;20550;-79
2023/10/07 04:38:09;;;;;;;9.25;4.10;;;15.90;99.90;;;;;;5069826;28;20176;-79
2023/10/07 04:43:35;;;;;;;10.75;3.40;;;15.90;99.90;;;;;;5070513;28;20032;-79
2023/10/07 04:46:06;;;;;;;6.53;3.33;;;15.90;99.90;;;;;;5069938;28;20116;-79
2023/10/07 04:48:54;;;;;;;10.77;4.00;;;15.90;99.90;;;;;;5070591;28;20031;-80
2023/10/07 04:51:24;;;;;;;7.50;3.50;;;15.90;99.90;;;;;;5070291;28;20056;-80
2023/10/07 04:53:57;;;;;;;10.45;3.85;;;16.00;99.90;;;;;;5069922;28;20056;-79
2023/10/07 04:56:25;;;;;;;;;;;16.00;99.90;;;;;;5070367;28;20054;-79
2023/10/07 04:58:53;;;;;;;7.00;3.22;;;15.90;99.90;;;;;;5069528;28;19905;-79
2023/10/07 05:01:31;;;;;;;9.75;3.58;;;16.00;99.90;;;;;;5070368;28;20036;-80
2023/10/07 05:04:04;;;;;;;8.05;3.47;;;16.00;99.90;;;;;;5070125;28;20050;-80
2023/10/07 05:06:37;;;;;;;5.03;3.42;;;16.00;99.90;;;;;;5070320;28;20036;-80
2023/10/07 05:09:10;;;;;;;9.52;3.60;;;16.00;99.90;;;;;;5069736;28;20020;-81
2023/10/07 05:11:38;;;;;;;8.10;3.22;;;16.00;99.90;;;;;;5070329;28;20017;-79
2023/10/07 05:14:07;;;;;;;7.75;3.65;;;16.00;99.90;;;;;;5069606;28;20068;-80
2023/10/07 05:16:34;;;;;;;7.50;3.50;;;16.00;99.90;;;;;;5051849;28;20122;-80
2023/10/07 05:19:00;;;;;;;8.73;3.58;;;16.00;99.90;;;;;;5069585;28;20176;-80
2023/10/07 05:21:27;;;;;;;11.80;3.72;;;16.00;99.90;;;;;;5070163;28;20313;-80
2023/10/07 05:23:53;;;;;;;8.07;3.53;;;16.00;99.90;;;;;;5051528;28;20032;-80
2023/10/07 05:26:19;;;;;;;9.93;3.67;;;16.00;99.90;;;;;;5069377;28;20075;-80
2023/10/07 05:28:45;;;;;;;7.72;3.33;;;16.10;99.90;;;;;;5070004;28;20064;-80
2023/10/07 05:31:14;;;;;;;7.38;3.08;;;16.10;99.90;;;;;;5069221;28;20032;-80
2023/10/07 05:33:42;;;;;;;7.00;3.38;;;16.10;99.90;;;;;;5069980;28;20041;-79
2023/10/07 05:36:20;;;;;;;10.38;3.55;;;16.10;99.90;;;;;;5072687;28;20028;-80
2023/10/07 05:38:50;;;;;;;9.55;3.47;;;16.10;99.90;;;;;;5073992;28;20028;-80
2023/10/07 05:41:16;;;;;;;8.70;3.25;;;16.20;99.90;;;;;;5073343;28;20501;-80
2023/10/07 05:43:43;;;;;;;6.28;3.50;;;16.20;99.90;;;;;;5073883;28;20024;-80
2023/10/07 05:46:12;;;;;;;8.90;3.58;;;16.20;99.90;;;;;;5073203;28;20032;-79
2023/10/07 05:48:39;;;;;;;11.90;3.90;;;16.20;99.90;;;;;;5073671;28;20115;-79
2023/10/07 05:51:09;;;;;;;9.77;3.47;;;16.20;99.90;;;;;;5072606;28;20060;-79
2023/10/07 05:53:39;;;;;;;11.48;4.15;;;16.20;99.90;;;;;;5073569;28;20442;-80
2023/10/07 05:56:06;;;;;;;10.32;3.33;;;16.20;99.90;;;;;;5072836;28;20021;-79
2023/10/07 05:58:36;;;;;;;7.32;3.30;;;16.20;99.90;;;;;;5073408;28;20028;-79
2023/10/07 06:01:03;;;;;;;7.80;3.13;;;16.20;99.90;;;;;;5072753;28;20021;-80
2023/10/07 06:03:30;;;;;;;7.35;2.95;;;16.30;99.90;;;;;;5073406;28;20028;-79
2023/10/07 06:05:57;;;;;;;10.20;3.53;;;16.30;99.90;;;;;;5072883;28;20035;-80
2023/10/07 06:08:26;;;;;;;8.93;3.60;;;16.30;99.90;;;;;;5073101;28;20056;-78
2023/10/07 06:11:01;;;;;;;5.80;2.70;;;16.30;99.90;;;;;;5073048;28;20429;-79
2023/10/07 06:13:28;;;;;;;9.98;3.33;;;16.30;99.90;;;;;;5073299;28;20028;-78
2023/10/07 06:15:58;;;;;;;8.20;3.47;;;16.30;99.90;;;;;;5072595;28;20040;-79
2023/10/07 06:18:27;;;;;;;10.85;3.70;;;16.30;99.90;;;;;;5073026;28;20024;-78
2023/10/07 06:20:53;;;;;;;8.25;3.30;;;16.30;99.90;;;;;;5072906;28;20029;-79
2023/10/07 06:23:20;;;;;;;9.70;3.85;;;16.30;99.90;;;;;;5072614;28;20094;-79
2023/10/07 06:25:51;;;;;;;7.65;3.42;;;16.30;99.90;;;;;;5073049;28;20024;-79
2023/10/07 06:31:22;;;;;;;8.90;3.42;;;16.30;99.90;;;;;;5073336;28;20040;-79
2023/10/07 06:34:12;;;;;;;10.52;3.70;;;16.30;99.90;;;;;;5073408;28;20337;-79
2023/10/07 06:36:37;;;;;;;7.60;3.22;;;16.30;99.90;;;;;;5072599;28;20075;-78
2023/10/07 06:39:07;;;;;;;7.72;2.95;;;16.40;99.90;;;;;;5073057;28;20078;-79
2023/10/07 06:41:34;;;;;;;9.82;3.30;;;16.40;99.90;;;;;;5072917;28;20056;-78
2023/10/07 06:44:02;;;;;;;10.20;3.60;;;16.40;99.90;;;;;;5072292;28;20068;-79
2023/10/07 06:46:42;;;;;;;7.18;3.47;;;16.40;99.90;;;;;;5071461;28;20068;-79
2023/10/07 06:49:18;;;;;;;10.23;3.63;;;16.40;99.90;;;;;;5072070;28;20107;-80
2023/10/07 06:51:45;;;;;;;10.18;3.70;;;16.40;99.90;;;;;;5038866;28;20131;-79
2023/10/07 06:54:13;;;;;;;10.55;3.30;;;16.50;99.90;;;;;;5071563;28;20029;-79
2023/10/07 06:56:40;;;;;;;9.70;3.47;;;16.50;99.90;;;;;;5072348;28;20094;-79
2023/10/07 06:59:06;;;;;;;10.73;4.03;;;16.50;99.90;;;;;;5072299;28;20082;-79
2023/10/07 07:04:11;;;;;;;8.20;3.20;;;16.70;99.90;;;;;;5072220;28;20031;-80
2023/10/07 07:06:44;;;;;;;8.80;4.15;;;16.70;99.90;;;;;;5072278;28;20390;-80
2023/10/07 07:12:03;;;;;;;12.00;4.22;;;16.70;99.90;;;;;;5071773;28;20082;-80
2023/10/07 07:14:30;;;;;;;9.75;3.85;;;16.80;99.90;;;;;;5072054;28;20037;-79
2023/10/07 07:17:28;;;;;;;13.05;3.70;;;17.00;99.90;;;;;;5071997;28;20336;-78
2023/10/07 07:19:44;;;;;;;8.80;3.80;;;17.10;99.90;;;;;;5071879;28;20167;-79
2023/10/07 07:22:11;;;;;;;13.23;3.60;;;17.20;99.90;;;;;;5071163;28;20032;-79
2023/10/07 07:24:37;;;;;;;13.85;4.25;;;17.30;99.90;;;;;;5071839;28;20351;-79
2023/10/07 07:27:03;;;;;;;10.48;3.75;;;17.40;99.90;;;;;;5071012;28;20021;-79
2023/10/07 07:29:30;;;;;;;10.35;3.67;;;17.40;99.90;;;;;;5072005;28;20024;-79
2023/10/07 07:31:56;;;;;;;13.07;3.90;;;17.50;99.90;;;;;;5071103;28;20078;-78
2023/10/07 07:34:26;;;;;;;11.15;3.83;;;17.60;99.90;;;;;;5071043;28;20037;-79
2023/10/07 07:37:05;;;;;;;11.63;3.80;;;17.60;99.90;;;;;;5072458;28;20029;-79
2023/10/07 07:39:31;;;;;;;10.27;3.78;;;17.70;99.90;;;;;;5071744;28;20033;-79
2023/10/07 07:42:00;;;;;;;9.82;3.25;;;17.70;99.90;;;;;;5071665;28;20028;-79
2023/10/07 07:44:32;;;;;;;8.55;3.45;;;17.70;99.90;;;;;;5071256;28;20064;-80
2023/10/07 07:47:00;;;;;;;9.63;3.38;;;17.70;99.90;;;;;;5071265;28;20039;-80
2023/10/07 07:49:28;;;;;;;12.18;3.53;;;17.70;99.90;;;;;;5070830;28;20248;-80
2023/10/07 07:51:54;;;;;;;12.00;3.92;;;17.60;99.90;;;;;;5071148;28;20078;-79
2023/10/07 07:54:22;;;;;;;9.77;3.50;;;17.70;99.90;;;;;;5070582;28;20065;-79
2023/10/07 07:56:48;;;;;;;8.82;3.65;;;17.70;99.90;;;;;;5071140;28;20064;-79
2023/10/07 07:59:14;;;;;;;8.93;3.38;;;17.70;99.90;;;;;;5069930;28;20021;-80
2023/10/07 08:01:44;;;;;;;9.25;3.55;;;17.70;99.90;;;;;;5070575;28;20062;-80
2023/10/07 08:04:17;;;;;;;11.98;3.58;;;17.80;99.90;;;;;;5070841;28;20033;-80
2023/10/07 08:06:49;;;;;;;;;;;17.70;99.90;;;;;;5071503;28;20024;-79
2023/10/07 08:09:19;;;;;;;9.80;4.10;;;17.70;99.90;;;;;;5070404;28;19991;-80
2023/10/07 08:11:46;;;;;;;11.98;3.85;;;17.70;99.90;;;;;;5071351;28;20033;-80
2023/10/07 08:14:13;;;;;;;14.10;3.80;;;17.70;99.90;;;;;;5070543;28;20039;-79
2023/10/07 08:16:50;;;;;;;11.93;3.40;;;17.70;99.90;;;;;;5070908;28;20082;-79
2023/10/07 08:19:24;;;;;;;12.80;3.70;;;17.80;99.90;;;;;;5070391;28;20462;-79
2023/10/07 08:21:54;;;;;;;16.92;4.00;;;17.90;99.90;;;;;;5052829;28;20336;-81
2023/10/07 08:24:21;;;;;;;16.13;4.53;;;17.90;99.90;;;;;;5070278;28;20035;-80
2023/10/07 08:26:48;;;;;;;9.30;3.63;;;18.00;99.90;;;;;;5070819;28;20024;-80
2023/10/07 08:29:31;;;;;;;11.10;3.22;;;18.20;99.90;;;;;;5052393;28;20111;-79
2023/10/07 08:32:00;;;;;;;;;;;18.30;99.90;;;;;;5070718;28;20471;-79
2023/10/07 08:34:34;;;;;;;9.68;3.70;;;18.30;99.90;;;;;;5069769;28;19959;-79
2023/10/07 08:37:03;;;;;;;13.68;3.28;;;18.40;99.90;;;;;;5070695;28;20033;-79
2023/10/07 08:39:35;;;;;;;11.13;3.60;;;18.60;99.90;;;;;;5051992;28;20056;-79
2023/10/07 08:42:12;;;;;;;11.13;4.47;;;18.60;99.90;;;;;;5070513;28;20031;-79
2023/10/07 08:44:38;;;;;;;14.57;3.75;;;18.70;99.90;;;;;;5070555;28;20043;-80
2023/10/07 08:47:10;;;;;;;10.10;4.25;;;18.80;99.90;;;;;;5069986;28;20032;-79
2023/10/07 08:49:38;;;;;;;13.32;3.95;;;18.80;99.90;;;;;;5070645;28;20033;-79
2023/10/07 08:52:10;;;;;;;9.20;3.83;;;18.80;99.90;;;;;;5069556;28;20105;-79
2023/10/07 08:54:44;;;;;;;7.73;3.70;;;18.80;99.90;;;;;;5070084;28;20032;-78
2023/10/07 08:57:34;;;;;;;10.80;3.75;;;18.80;99.90;;;;;;5052905;28;20253;-79
2023/10/07 09:00:00;;;;;;;18.95;4.00;;;18.80;99.90;;;;;;5069954;28;20024;-79
2023/10/07 09:02:26;;;;;;;12.70;4.20;;;18.90;99.90;;;;;;5069446;28;20024;-80
2023/10/07 09:05:16;;;;;;;17.88;3.53;;;18.90;99.90;;;;;;5070571;28;20070;-79
2023/10/07 09:07:48;;;;;;;9.77;3.28;;;19.00;99.90;;;;;;5069834;28;20016;-80
2023/10/07 09:10:15;;;;;;;7.05;2.78;;;19.10;99.90;;;;;;5068725;28;20430;-80
2023/10/07 09:12:56;;;;;;;10.65;3.60;;;19.20;99.90;;;;;;5069645;28;20028;-80
2023/10/07 09:15:29;;;;;;;7.10;2.85;;;19.20;99.90;;;;;;5053453;28;20094;-80
2023/10/07 09:18:05;;;;;;;11.23;3.33;;;19.30;99.90;;;;;;5069892;28;20029;-79
2023/10/07 09:20:32;;;;;;;11.50;3.40;;;19.40;99.90;;;;;;5070076;28;20093;-79
2023/10/07 09:23:07;;;;;;;13.93;3.38;;;19.40;99.90;;;;;;5069898;28;20021;-79
2023/10/07 09:25:33;;;;;;;15.05;2.97;;;19.30;99.90;;;;;;5069766;28;20033;-79
2023/10/07 09:28:01;;;;;;;13.25;3.28;;;19.40;99.90;;;;;;5069853;28;20024;-79
2023/10/07 09:30:35;;;;;;;11.57;3.20;;;19.40;99.90;;;;;;5069190;28;20024;-79
2023/10/07 09:33:17;;;;;;;12.50;3.05;;;19.50;99.90;;;;;;5052031;28;20031;-79
2023/10/07 09:38:41;;;;;;;11.13;3.75;;;19.40;99.90;;;;;;5069787;28;20309;-79
2023/10/07 09:43:47;;;;;;;14.77;3.67;;;19.40;99.90;;;;;;5069455;28;20590;-79
2023/10/07 09:46:16;;;;;;;8.90;2.95;;;19.40;99.90;;;;;;5069064;28;20035;-79
2023/10/07 09:48:42;;;;;;;10.98;3.00;;;19.40;99.90;;;;;;5069461;28;20029;-80
2023/10/07 09:54:24;;;;;;;15.25;3.08;;;19.50;99.90;;;;;;5069296;28;20063;-79
2023/10/07 09:57:06;;;;;;;9.02;3.40;;;19.50;99.90;;;;;;5069537;28;20036;-80
2023/10/07 10:00:26;;;;;;;13.77;3.17;;;19.60;99.90;;;;;;5069196;28;20544;-80
2023/10/07 10:03:04;;;;;;;12.80;2.88;;;19.60;99.90;;;;;;5069232;28;20029;-80
2023/10/07 10:05:47;;;;;;;7.18;2.80;;;19.70;99.90;;;;;;5069447;28;20218;-80
2023/10/07 10:08:55;;;;;;;9.30;3.17;;;19.70;99.90;;;;;;5068955;28;20032;-80
2023/10/07 10:11:31;;;;;;;11.13;3.10;;;19.80;99.90;;;;;;5068879;28;20021;-80
2023/10/07 10:16:45;;;;;;;14.25;3.10;;;19.90;99.90;;;;;;5069618;28;20131;-80
2023/10/07 10:19:17;;;;;;;11.88;3.00;;;19.90;99.90;;;;;;5050503;28;20036;-80
2023/10/07 10:21:44;;;;;;;10.18;3.05;;;20.00;99.90;;;;;;5071754;28;20056;-80
2023/10/07 10:24:15;;;;;;;8.93;3.20;;;19.90;99.90;;;;;;5073671;28;20029;-80
2023/10/07 10:26:41;;;;;;;11.18;3.20;;;20.00;99.90;;;;;;5073927;28;20028;-80
2023/10/07 10:29:15;;;;;;;14.40;3.17;;;19.90;99.90;;;;;;5073620;28;20024;-80
2023/10/07 10:31:49;;;;;;;12.85;3.05;;;19.90;99.90;;;;;;5073681;28;20025;-80
2023/10/07 10:34:16;;;;;;;9.27;2.92;;;19.90;99.90;;;;;;5072907;28;20086;-80
2023/10/07 10:36:48;;;;;;;11.45;2.65;;;20.00;99.90;;;;;;5073991;28;20028;-80
2023/10/07 10:39:25;;;;;;;9.88;3.28;;;20.00;99.90;;;;;;5073074;28;20092;-80
2023/10/07 10:41:52;;;;;;;9.43;3.08;;;20.00;99.90;;;;;;5073491;28;20025;-80
2023/10/07 10:44:20;;;;;;;8.30;2.60;;;20.10;99.90;;;;;;5072764;28;20339;-81
2023/10/07 10:46:48;;;;;;;9.43;3.00;;;20.10;99.90;;;;;;5073565;28;20036;-81
2023/10/07 10:49:16;;;;;;;13.70;3.47;;;20.20;99.90;;;;;;5072566;28;20100;-80
2023/10/07 10:51:50;;;;;;;9.57;2.92;;;20.20;99.90;;;;;;5055214;28;20049;-81
2023/10/07 10:54:20;;;;;;;14.15;4.57;;;20.30;99.90;;;;;;5072280;28;20037;-80
2023/10/07 10:56:55;;;;;;;17.27;3.88;;;20.30;99.90;;;;;;5055134;28;20320;-81
2023/10/07 10:59:22;;;;;;;18.13;3.75;;;20.40;99.90;;;;;;5072582;28;20020;-80
2023/10/07 11:01:51;;;;;;;11.40;3.00;;;20.50;99.90;;;;;;5072959;28;20107;-81
2023/10/07 11:04:20;;;;;;;10.43;2.78;;;20.60;99.90;;;;;;5054413;28;20029;-80
2023/10/07 11:06:50;;;;;;;10.25;2.88;;;20.70;99.90;;;;;;5055028;28;20059;-80
2023/10/07 11:09:18;;;;;;;13.20;3.63;;;20.80;99.90;;;;;;5072046;28;20108;-80
2023/10/07 11:11:48;;;;;;;8.27;3.10;;;20.90;99.90;;;;;;5072836;28;20032;-81
2023/10/07 11:14:20;;;;;;;6.60;2.72;;;21.10;99.90;;;;;;5072329;28;20044;-81
2023/10/07 11:16:46;;;;;;;11.43;3.17;;;21.10;99.90;;;;;;5055671;28;20029;-81
2023/10/07 11:19:14;;;;;;;13.02;2.88;;;21.10;99.90;;;;;;5072593;28;20037;-80
2023/10/07 11:21:48;;;;;;;11.75;3.28;;;21.10;99.90;;;;;;5072735;28;20027;-80
2023/10/07 11:24:30;;;;;;;15.18;3.28;;;21.20;99.90;;;;;;5072276;28;20459;-80
2023/10/07 11:27:00;;;;;;;12.88;3.05;;;21.20;99.90;;;;;;5072497;28;20098;-79
2023/10/07 11:29:30;;;;;;;12.50;3.05;;;21.20;99.90;;;;;;5071627;28;20068;-80
2023/10/07 11:32:04;;;;;;;15.15;3.42;;;21.30;99.90;;;;;;5071893;28;20055;-80
2023/10/07 11:34:38;;;;;;;11.00;3.03;;;21.20;99.90;;;;;;5068551;28;20467;-80
2023/10/07 11:37:09;;;;;;;11.90;3.53;;;21.20;99.90;;;;;;5053944;28;20055;-80
2023/10/07 11:39:44;;;;;;;13.70;3.47;;;21.20;99.90;;;;;;5071609;28;20024;-81
2023/10/07 11:42:17;;;;;;;10.23;3.03;;;21.20;99.90;;;;;;5069284;28;20032;-81
2023/10/07 11:44:48;;;;;;;10.98;3.42;;;21.30;99.90;;;;;;5071968;28;20086;-80
2023/10/07 11:47:16;;;;;;;8.88;3.17;;;21.20;99.90;;;;;;5071270;28;20025;-80
2023/10/07 11:49:44;;;;;;;14.27;3.28;;;21.30;99.90;;;;;;5072005;28;20032;-80
2023/10/07 11:52:10;;;;;;;12.52;3.33;;;21.30;99.90;;;;;;5072406;28;20102;-80
2023/10/07 11:54:37;;;;;;;11.48;3.10;;;21.40;99.90;;;;;;5070818;28;20251;-80
2023/10/07 11:57:06;;;;;;;15.10;3.25;;;21.40;99.90;;;;;;5071922;28;20079;-81
2023/10/07 11:59:34;;;;;;;10.35;3.45;;;21.50;99.90;;;;;;5071459;28;20052;-81
2023/10/07 12:02:01;;;;;;;12.90;3.58;;;21.50;99.90;;;;;;5071869;28;20029;-81
2023/10/07 12:04:27;;;;;;;6.93;2.75;;;21.50;99.90;;;;;;5071616;28;20029;-81
2023/10/07 12:06:53;;;;;;;11.68;3.60;;;21.50;99.90;;;;;;5071365;28;20107;-81
2023/10/07 12:09:23;;;;;;;14.25;3.22;;;21.60;99.90;;;;;;5070996;28;20161;-81
2023/10/07 12:11:49;;;;;;;9.23;3.35;;;21.60;99.90;;;;;;5071921;28;20025;-81
2023/10/07 12:14:19;;;;;;;12.02;3.30;;;21.60;99.90;;;;;;5071827;28;20044;-80
2023/10/07 12:16:45;;;;;;;17.00;3.97;;;21.60;99.90;;;;;;5069322;28;20344;-80
2023/10/07 12:19:11;;;;;;;10.02;3.30;;;21.70;99.90;;;;;;5071698;28;20036;-80
2023/10/07 12:21:39;;;;;;;12.45;3.72;;;21.80;99.90;;;;;;5069853;28;20451;-81
2023/10/07 12:24:06;;;;;;;11.60;3.40;;;21.80;99.90;;;;;;5071749;28;20454;-80
2023/10/07 12:26:32;;;;;;;20.17;3.83;;;21.90;99.90;;;;;;5071286;28;20025;-81
2023/10/07 12:28:58;;;;;;;16.60;4.20;;;21.90;99.90;;;;;;5071500;28;20078;-80
2023/10/07 12:31:24;;;;;;;11.20;3.15;;;21.90;99.90;;;;;;5070763;28;20043;-79
2023/10/07 12:33:50;;;;;;;15.77;3.70;;;22.00;99.90;;;;;;5071675;28;20028;-80
2023/10/07 12:36:18;;;;;;;9.95;2.95;;;21.90;99.90;;;;;;5071266;28;20059;-81
2023/10/07 12:38:44;;;;;;;9.48;3.40;;;21.90;99.90;;;;;;5072032;28;20242;-81
2023/10/07 12:41:13;;;;;;;12.20;3.63;;;21.90;99.90;;;;;;5071959;28;20526;-80
2023/10/07 12:43:38;;;;;;;14.75;3.40;;;21.90;99.90;;;;;;5071062;28;20032;-80
2023/10/07 12:46:09;;;;;;;15.35;3.80;;;22.00;99.90;;;;;;5071580;28;20336;-81
2023/10/07 12:48:40;;;;;;;11.88;3.40;;;21.90;99.90;;;;;;5072056;28;20028;-81
2023/10/07 12:51:06;;;;;;;16.10;4.43;;;21.90;99.90;;;;;;5071897;28;20056;-81
2023/10/07 12:53:36;;;;;;;12.63;3.45;;;21.90;99.90;;;;;;5072017;28;20439;-80
2023/10/07 12:56:17;;;;;;;9.05;3.10;;;21.80;99.90;;;;;;5072072;28;20087;-81
2023/10/07 12:58:46;;;;;;;13.43;3.78;;;21.80;99.90;;;;;;5071641;28;20090;-81
2023/10/07 13:01:12;;;;;;;17.48;3.83;;;21.70;99.90;;;;;;5071158;28;20024;-81
2023/10/07 13:03:44;;;;;;;13.32;3.90;;;21.70;99.90;;;;;;5070133;28;20021;-81
2023/10/07 13:06:11;;;;;;;12.43;3.67;;;21.70;99.90;;;;;;5070783;28;20039;-80
2023/10/07 13:08:41;;;;;;;16.02;4.13;;;21.80;99.90;;;;;;5071119;28;20615;-80
2023/10/07 13:11:13;;;;;;;16.02;3.97;;;21.70;99.90;;;;;;5071005;28;20028;-81
2023/10/07 13:13:46;;;;;;;12.23;3.88;;;21.70;99.90;;;;;;5070763;28;20781;-80
2023/10/07 13:16:12;;;;;;;;;;;21.60;99.90;;;;;;5053836;28;20442;-79
2023/10/07 13:18:42;;;;;;;13.10;3.78;;;21.50;99.90;;;;;;5070304;28;20432;-80
2023/10/07 13:21:13;;;;;;;12.65;3.33;;;21.60;99.90;;;;;;5052601;28;20424;-81
2023/10/07 13:23:47;;;;;;;15.63;3.80;;;21.50;99.90;;;;;;5070265;28;20078;-81
2023/10/07 13:26:14;;;;;;;12.27;3.60;;;21.40;99.90;;;;;;5068307;28;20021;-81
2023/10/07 13:28:41;;;;;;;17.95;3.80;;;21.50;99.90;;;;;;5070086;28;20078;-80
2023/10/07 13:31:10;;;;;;;15.43;3.85;;;21.50;99.90;;;;;;5069858;28;20052;-82
2023/10/07 13:33:36;;;;;;;17.48;3.97;;;21.50;99.90;;;;;;5051041;28;20020;-80
2023/10/07 13:36:03;;;;;;;13.23;3.78;;;21.60;99.90;;;;;;5069778;28;20028;-81
2023/10/07 13:38:30;;;;;;;14.60;3.95;;;21.60;99.90;;;;;;5068963;28;20029;-81
2023/10/07 13:40:56;;;;;;;14.27;4.40;;;21.60;99.90;;;;;;5067634;28;20016;-81